ADDS METAR Data INFO
IDs: Format: Raw Decoded Include TAF

Data at: 1129 UTC 17 Jul 2018

KRAL 171053Z AUTO 27005KT 10SM CLR 20/18 A2996 RMK AO2 SLP128 T02000178
KRAL 170953Z AUTO 27005KT 10SM CLR 21/18 A2996 RMK AO2 SLP128 T02060178
KRAL 170853Z AUTO 27005KT 10SM CLR 21/18 A2996 RMK AO2 SLP128 T02060178 58006
KRAL 170753Z AUTO 28004KT 10SM CLR 22/18 A2998 RMK AO2 SLP133 T02170178 403610189
KRAL 170653Z AUTO 27005KT 10SM CLR 22/18 A2999 RMK AO2 SLP138 T02170178
KRAL 170553Z AUTO 27007KT 10SM CLR 22/18 A2998 RMK AO2 SLP135 T02220178 10339 20222 51018
KRAL 170453Z AUTO 27011KT 10SM CLR 23/18 A2998 RMK AO2 SLP136 T02280178
KRAL 170353Z 26007KT 10SM CLR 25/17 A2996 RMK AO2 SLP129 T02500172
KRAL 170253Z 28009KT 10SM CLR 27/17 A2993 RMK AO2 SLP118 T02720167 53012
KRAL 170153Z 27010KT 10SM CLR 29/16 A2990 RMK AO2 SLP108 T02940161
KRAL 170053Z 28012G18KT 10SM CLR 32/14 A2989 RMK AO2 SLP103 T03170144
KRAL 162353Z 29007G17KT 10SM CLR 34/15 A2989 RMK AO2 SLP104 T03390150 10361 20283 56013
KRAL 162253Z 28011G16KT 10SM CLR 35/13 A2989 RMK AO2 SLP105 T03500133
KRAL 162153Z 29008G16KT 260V320 10SM SCT200 35/14 A2991 RMK AO2 SLP110 T03500139
KRAL 162053Z VRB04KT 10SM SCT200 34/16 A2993 RMK AO2 SLP116 T03440161 58019
KRAL 161953Z 28009KT 10SM CLR 33/14 A2995 RMK AO2 SLP124 T03280139
KRAL 161853Z VRB05KT 10SM CLR 31/16 A2997 RMK AO2 SLP132 T03060156
KRAL 161753Z 00000KT 10SM FEW200 28/16 A2998 RMK AO2 SLP137 T02830161 10283 20189 58004
KRAL 161653Z 00000KT 10SM FEW200 26/17 A2999 RMK AO2 SLP140 T02560167
KRAL 161553Z 27003KT 10SM FEW200 24/17 A3000 RMK AO2 SLP143 T02390172
KRAL 161453Z 00000KT 10SM FEW200 22/17 A3000 RMK AO2 SLP142 T02170172 51013
KRAL 161353Z 30004KT 10SM FEW200 20/17 A2998 RMK AO2 SLP137 T02000172
KRAL 161253Z AUTO 32003KT 10SM CLR 20/17 A2997 RMK AO2 SLP132 T02000172
KRAL 161153Z AUTO 27003KT 10SM CLR 19/17 A2996 RMK AO2 SLP127 T01940167 10228 20194 55003
KRAL 161053Z AUTO 29003KT 10SM CLR 20/17 A2995 RMK AO2 SLP125 T02000167
KRAL 160953Z AUTO 00000KT 10SM CLR 21/17 A2996 RMK AO2 SLP128 T02060167
KRAL 160853Z AUTO 28004KT 10SM CLR 21/17 A2997 RMK AO2 SLP130 T02060172 58003
KRAL 160753Z AUTO VRB03KT 10SM CLR 21/17 A2998 RMK AO2 SLP134 T02110167 403670206
KRAL 160653Z AUTO 28004KT 10SM CLR 22/17 A2998 RMK AO2 SLP134 T02220167
KRAL 160553Z AUTO 25004KT 10SM CLR 23/17 A2998 RMK AO2 SLP134 T02280167 10339 20228 51020
KRAL 160453Z AUTO 27005KT 10SM CLR 23/17 A2997 RMK AO2 SLP132 T02330167
KRAL 160353Z 28006KT 10SM CLR 24/17 A2994 RMK AO2 SLP122 T02440167
KRAL 160253Z 27010KT 10SM CLR 27/16 A2991 RMK AO2 SLP113 T02720161 53016
KRAL 160153Z 29008G15KT 10SM CLR 31/10 A2989 RMK AO2 SLP105 T03060100
KRAL 160053Z 27014KT 10SM CLR 33/11 A2987 RMK AO2 SLP098 T03280106
KRAL 152353Z 28015G21KT 10SM CLR 34/11 A2987 RMK AO2 SLP096 T03390111 10367 20300 56016